sensor_id;sensor_type;location;lat;lon;timestamp;temperature;humidity
41547;DHT22;27271;45.412;10.852;2023-02-21T00:01:26;5.60;99.90
41547;DHT22;27271;45.412;10.852;2023-02-21T00:05:07;5.80;99.90
41547;DHT22;27271;45.412;10.852;2023-02-21T00:08:48;6.00;99.90
41547;DHT22;27271;45.412;10.852;2023-02-21T00:12:28;6.00;99.90
41547;DHT22;27271;45.412;10.852;2023-02-21T00:16:14;6.00;99.90
41547;DHT22;27271;45.412;10.852;2023-02-21T00:19:55;6.00;99.90
41547;DHT22;27271;45.412;10.852;2023-02-21T00:23:38;6.00;99.90
41547;DHT22;27271;45.412;10.852;2023-02-21T00:27:19;6.00;99.90
41547;DHT22;27271;45.412;10.852;2023-02-21T00:31:00;6.00;99.90
41547;DHT22;27271;45.412;10.852;2023-02-21T00:34:40;6.00;99.90
41547;DHT22;27271;45.412;10.852;2023-02-21T00:38:21;6.00;99.90
41547;DHT22;27271;45.412;10.852;2023-02-21T00:42:02;6.00;99.90
41547;DHT22;27271;45.412;10.852;2023-02-21T00:45:43;6.00;99.90
41547;DHT22;27271;45.412;10.852;2023-02-21T00:49:24;6.00;99.90
41547;DHT22;27271;45.412;10.852;2023-02-21T00:53:04;6.00;99.90
41547;DHT22;27271;45.412;10.852;2023-02-21T00:56:45;6.00;99.90
41547;DHT22;27271;45.412;10.852;2023-02-21T01:00:26;6.00;99.90
41547;DHT22;27271;45.412;10.852;2023-02-21T01:04:06;5.80;99.90
41547;DHT22;27271;45.412;10.852;2023-02-21T01:07:47;5.80;99.90
41547;DHT22;27271;45.412;10.852;2023-02-21T01:11:28;5.80;99.90
41547;DHT22;27271;45.412;10.852;2023-02-21T01:15:09;5.70;99.90
41547;DHT22;27271;45.412;10.852;2023-02-21T01:18:49;5.70;99.90
41547;DHT22;27271;45.412;10.852;2023-02-21T01:22:30;5.60;99.90
41547;DHT22;27271;45.412;10.852;2023-02-21T01:26:11;5.60;99.90
41547;DHT22;27271;45.412;10.852;2023-02-21T01:29:51;5.50;99.90
41547;DHT22;27271;45.412;10.852;2023-02-21T01:33:37;5.50;99.90
41547;DHT22;27271;45.412;10.852;2023-02-21T01:37:18;5.40;99.90
41547;DHT22;27271;45.412;10.852;2023-02-21T01:40:58;5.40;99.90
41547;DHT22;27271;45.412;10.852;2023-02-21T01:44:41;5.30;99.90
41547;DHT22;27271;45.412;10.852;2023-02-21T01:48:23;5.30;99.90
41547;DHT22;27271;45.412;10.852;2023-02-21T01:52:04;5.10;99.90
41547;DHT22;27271;45.412;10.852;2023-02-21T01:55:45;5.00;99.90
41547;DHT22;27271;45.412;10.852;2023-02-21T01:59:26;4.80;99.90
41547;DHT22;27271;45.412;10.852;2023-02-21T02:03:09;4.70;99.90
41547;DHT22;27271;45.412;10.852;2023-02-21T02:06:50;4.60;99.90
41547;DHT22;27271;45.412;10.852;2023-02-21T02:10:31;4.40;99.90
41547;DHT22;27271;45.412;10.852;2023-02-21T02:22:18;4.10;99.90
41547;DHT22;27271;45.412;10.852;2023-02-21T02:40:59;3.70;99.90
41547;DHT22;27271;45.412;10.852;2023-02-21T02:44:32;3.70;99.90
41547;DHT22;27271;45.412;10.852;2023-02-21T02:48:02;3.70;99.90
41547;DHT22;27271;45.412;10.852;2023-02-21T02:51:28;3.60;99.90
41547;DHT22;27271;45.412;10.852;2023-02-21T02:55:03;3.50;99.90
41547;DHT22;27271;45.412;10.852;2023-02-21T02:58:33;3.50;99.90
41547;DHT22;27271;45.412;10.852;2023-02-21T03:05:38;3.40;99.90
41547;DHT22;27271;45.412;10.852;2023-02-21T03:09:59;3.40;99.90
41547;DHT22;27271;45.412;10.852;2023-02-21T03:13:12;3.30;99.90
41547;DHT22;27271;45.412;10.852;2023-02-21T03:16:43;3.20;99.90
41547;DHT22;27271;45.412;10.852;2023-02-21T03:20:07;3.10;99.90
41547;DHT22;27271;45.412;10.852;2023-02-21T03:23:31;3.10;99.90
41547;DHT22;27271;45.412;10.852;2023-02-21T03:26:59;3.10;99.90
41547;DHT22;27271;45.412;10.852;2023-02-21T03:30:43;3.10;99.90
41547;DHT22;27271;45.412;10.852;2023-02-21T03:34:06;3.10;99.90
41547;DHT22;27271;45.412;10.852;2023-02-21T03:37:30;3.10;99.90
41547;DHT22;27271;45.412;10.852;2023-02-21T03:40:53;3.10;99.90
41547;DHT22;27271;45.412;10.852;2023-02-21T03:44:16;3.00;99.90
41547;DHT22;27271;45.412;10.852;2023-02-21T03:47:39;3.00;99.90
41547;DHT22;27271;45.412;10.852;2023-02-21T03:51:01;2.90;99.90
41547;DHT22;27271;45.412;10.852;2023-02-21T03:54:29;2.80;99.90
41547;DHT22;27271;45.412;10.852;2023-02-21T03:57:53;2.80;99.90
41547;DHT22;27271;45.412;10.852;2023-02-21T04:01:16;2.70;99.90
41547;DHT22;27271;45.412;10.852;2023-02-21T04:04:39;2.60;99.90
41547;DHT22;27271;45.412;10.852;2023-02-21T04:08:04;2.50;99.90
41547;DHT22;27271;45.412;10.852;2023-02-21T04:11:27;2.60;99.90
41547;DHT22;27271;45.412;10.852;2023-02-21T04:14:49;2.60;99.90
41547;DHT22;27271;45.412;10.852;2023-02-21T04:18:13;2.60;99.90
41547;DHT22;27271;45.412;10.852;2023-02-21T04:21:36;2.60;99.90
41547;DHT22;27271;45.412;10.852;2023-02-21T04:24:59;2.60;99.90
41547;DHT22;27271;45.412;10.852;2023-02-21T04:28:24;2.50;99.90
41547;DHT22;27271;45.412;10.852;2023-02-21T04:31:46;2.40;99.90
41547;DHT22;27271;45.412;10.852;2023-02-21T04:35:10;2.60;99.90
41547;DHT22;27271;45.412;10.852;2023-02-21T04:38:33;2.60;99.90
41547;DHT22;27271;45.412;10.852;2023-02-21T04:41:55;2.50;99.90
41547;DHT22;27271;45.412;10.852;2023-02-21T04:45:17;2.40;99.90
41547;DHT22;27271;45.412;10.852;2023-02-21T04:48:39;2.60;99.90
41547;DHT22;27271;45.412;10.852;2023-02-21T04:52:01;2.60;99.90
41547;DHT22;27271;45.412;10.852;2023-02-21T04:55:23;2.60;99.90
41547;DHT22;27271;45.412;10.852;2023-02-21T04:58:46;2.50;99.90
41547;DHT22;27271;45.412;10.852;2023-02-21T05:02:08;2.50;99.90
41547;DHT22;27271;45.412;10.852;2023-02-21T05:05:30;2.40;99.90
41547;DHT22;27271;45.412;10.852;2023-02-21T05:08:52;2.40;99.90
41547;DHT22;27271;45.412;10.852;2023-02-21T05:12:15;2.30;99.90
41547;DHT22;27271;45.412;10.852;2023-02-21T05:15:37;2.20;99.90
41547;DHT22;27271;45.412;10.852;2023-02-21T05:18:59;2.10;99.90
41547;DHT22;27271;45.412;10.852;2023-02-21T05:22:23;2.00;99.90
41547;DHT22;27271;45.412;10.852;2023-02-21T05:25:45;1.90;99.90
41547;DHT22;27271;45.412;10.852;2023-02-21T05:29:08;1.80;99.90
41547;DHT22;27271;45.412;10.852;2023-02-21T05:32:29;1.80;99.90
41547;DHT22;27271;45.412;10.852;2023-02-21T05:35:52;1.80;99.90
41547;DHT22;27271;45.412;10.852;2023-02-21T05:39:14;1.80;99.90
41547;DHT22;27271;45.412;10.852;2023-02-21T05:42:36;1.70;99.90
41547;DHT22;27271;45.412;10.852;2023-02-21T05:45:58;1.70;99.90
41547;DHT22;27271;45.412;10.852;2023-02-21T05:49:20;1.70;99.90
41547;DHT22;27271;45.412;10.852;2023-02-21T05:52:42;1.80;99.90
41547;DHT22;27271;45.412;10.852;2023-02-21T05:56:04;1.90;99.90
41547;DHT22;27271;45.412;10.852;2023-02-21T05:59:27;2.00;99.90
41547;DHT22;27271;45.412;10.852;2023-02-21T06:02:49;2.10;99.90
41547;DHT22;27271;45.412;10.852;2023-02-21T06:06:14;2.10;99.90
41547;DHT22;27271;45.412;10.852;2023-02-21T06:09:37;2.20;99.90
41547;DHT22;27271;45.412;10.852;2023-02-21T06:12:59;2.20;99.90
41547;DHT22;27271;45.412;10.852;2023-02-21T06:16:22;2.30;99.90
41547;DHT22;27271;45.412;10.852;2023-02-21T06:19:44;2.30;99.90
41547;DHT22;27271;45.412;10.852;2023-02-21T06:23:06;2.50;99.90
41547;DHT22;27271;45.412;10.852;2023-02-21T06:26:28;2.60;99.90
41547;DHT22;27271;45.412;10.852;2023-02-21T06:29:50;2.60;99.90
41547;DHT22;27271;45.412;10.852;2023-02-21T06:33:13;2.70;99.90
41547;DHT22;27271;45.412;10.852;2023-02-21T06:36:35;2.80;99.90
41547;DHT22;27271;45.412;10.852;2023-02-21T06:39:57;2.90;99.90
41547;DHT22;27271;45.412;10.852;2023-02-21T06:43:19;3.00;99.90
41547;DHT22;27271;45.412;10.852;2023-02-21T06:46:42;3.10;99.90
41547;DHT22;27271;45.412;10.852;2023-02-21T06:50:05;3.20;99.90
41547;DHT22;27271;45.412;10.852;2023-02-21T06:53:30;3.40;99.90
41547;DHT22;27271;45.412;10.852;2023-02-21T06:56:52;3.50;99.90
41547;DHT22;27271;45.412;10.852;2023-02-21T07:00:17;3.70;99.90
41547;DHT22;27271;45.412;10.852;2023-02-21T07:03:40;4.00;99.90
41547;DHT22;27271;45.412;10.852;2023-02-21T07:07:07;4.40;99.90
41547;DHT22;27271;45.412;10.852;2023-02-21T07:10:30;4.80;99.90
41547;DHT22;27271;45.412;10.852;2023-02-21T07:13:53;5.00;99.90
41547;DHT22;27271;45.412;10.852;2023-02-21T07:17:15;5.10;99.90
41547;DHT22;27271;45.412;10.852;2023-02-21T07:20:37;5.20;99.90
41547;DHT22;27271;45.412;10.852;2023-02-21T07:24:02;5.20;99.90
41547;DHT22;27271;45.412;10.852;2023-02-21T07:27:24;5.50;99.90
41547;DHT22;27271;45.412;10.852;2023-02-21T07:30:46;5.70;99.90
41547;DHT22;27271;45.412;10.852;2023-02-21T07:34:08;5.50;51.80
41547;DHT22;27271;45.412;10.852;2023-02-21T07:37:32;6.10;4.30
41547;DHT22;27271;45.412;10.852;2023-02-21T07:40:56;6.90;1.00
41547;DHT22;27271;45.412;10.852;2023-02-21T07:44:18;8.10;99.90
41547;DHT22;27271;45.412;10.852;2023-02-21T07:47:40;8.80;1.00
41547;DHT22;27271;45.412;10.852;2023-02-21T07:51:06;9.10;99.90
41547;DHT22;27271;45.412;10.852;2023-02-21T07:54:28;10.00;1.00
41547;DHT22;27271;45.412;10.852;2023-02-21T07:57:51;10.00;99.90
41547;DHT22;27271;45.412;10.852;2023-02-21T08:01:13;10.40;99.90
41547;DHT22;27271;45.412;10.852;2023-02-21T08:04:36;11.10;99.90
41547;DHT22;27271;45.412;10.852;2023-02-21T08:07:58;10.90;99.90
41547;DHT22;27271;45.412;10.852;2023-02-21T08:11:20;11.70;22.00
41547;DHT22;27271;45.412;10.852;2023-02-21T08:14:42;12.10;1.00
41547;DHT22;27271;45.412;10.852;2023-02-21T08:18:04;12.30;1.00
41547;DHT22;27271;45.412;10.852;2023-02-21T08:21:26;12.60;1.00
41547;DHT22;27271;45.412;10.852;2023-02-21T08:24:49;13.00;1.00
41547;DHT22;27271;45.412;10.852;2023-02-21T08:28:11;13.10;1.00
41547;DHT22;27271;45.412;10.852;2023-02-21T08:31:35;12.60;1.00
41547;DHT22;27271;45.412;10.852;2023-02-21T08:34:57;12.30;1.00
41547;DHT22;27271;45.412;10.852;2023-02-21T08:38:21;12.30;6.20
41547;DHT22;27271;45.412;10.852;2023-02-21T08:41:45;13.20;1.00
41547;DHT22;27271;45.412;10.852;2023-02-21T08:45:15;13.70;1.00
41547;DHT22;27271;45.412;10.852;2023-02-21T08:48:38;14.80;1.00
41547;DHT22;27271;45.412;10.852;2023-02-21T08:52:00;14.80;1.00
41547;DHT22;27271;45.412;10.852;2023-02-21T08:55:23;14.60;1.00
41547;DHT22;27271;45.412;10.852;2023-02-21T08:58:45;14.00;1.00
41547;DHT22;27271;45.412;10.852;2023-02-21T09:02:22;14.30;1.00
41547;DHT22;27271;45.412;10.852;2023-02-21T09:05:49;14.10;1.00
41547;DHT22;27271;45.412;10.852;2023-02-21T09:09:12;14.80;1.00
41547;DHT22;27271;45.412;10.852;2023-02-21T09:12:34;14.90;1.00
41547;DHT22;27271;45.412;10.852;2023-02-21T09:15:56;15.00;1.00
41547;DHT22;27271;45.412;10.852;2023-02-21T09:19:19;14.30;1.00
41547;DHT22;27271;45.412;10.852;2023-02-21T09:22:43;14.00;1.00
41547;DHT22;27271;45.412;10.852;2023-02-21T09:26:06;12.60;1.00
41547;DHT22;27271;45.412;10.852;2023-02-21T09:29:29;11.90;11.70
41547;DHT22;27271;45.412;10.852;2023-02-21T09:33:06;12.60;1.00
41547;DHT22;27271;45.412;10.852;2023-02-21T09:36:29;13.60;1.00
41547;DHT22;27271;45.412;10.852;2023-02-21T09:39:51;13.50;1.00
41547;DHT22;27271;45.412;10.852;2023-02-21T09:43:20;14.10;1.00
41547;DHT22;27271;45.412;10.852;2023-02-21T09:46:46;13.70;1.00
41547;DHT22;27271;45.412;10.852;2023-02-21T09:50:14;13.50;1.00
41547;DHT22;27271;45.412;10.852;2023-02-21T09:53:42;13.10;1.00
41547;DHT22;27271;45.412;10.852;2023-02-21T09:57:11;13.30;1.00
41547;DHT22;27271;45.412;10.852;2023-02-21T10:00:37;13.50;1.00
41547;DHT22;27271;45.412;10.852;2023-02-21T10:08:03;13.20;1.00
41547;DHT22;27271;45.412;10.852;2023-02-21T10:11:39;13.00;1.00
41547;DHT22;27271;45.412;10.852;2023-02-21T10:21:54;12.00;60.00
41547;DHT22;27271;45.412;10.852;2023-02-21T10:25:26;12.60;16.80
41547;DHT22;27271;45.412;10.852;2023-02-21T10:28:51;12.50;22.20
41547;DHT22;27271;45.412;10.852;2023-02-21T10:32:17;11.90;99.90
41547;DHT22;27271;45.412;10.852;2023-02-21T10:35:39;12.20;99.90
41547;DHT22;27271;45.412;10.852;2023-02-21T10:42:35;12.30;48.60
41547;DHT22;27271;45.412;10.852;2023-02-21T10:46:53;12.50;41.80
41547;DHT22;27271;45.412;10.852;2023-02-21T10:50:08;12.30;49.60
41547;DHT22;27271;45.412;10.852;2023-02-21T10:53:39;12.90;17.00
41547;DHT22;27271;45.412;10.852;2023-02-21T10:57:04;12.60;93.90
41547;DHT22;27271;45.412;10.852;2023-02-21T11:00:34;12.60;84.60
41547;DHT22;27271;45.412;10.852;2023-02-21T11:04:00;13.10;33.80
41547;DHT22;27271;45.412;10.852;2023-02-21T11:07:22;13.00;50.10
41547;DHT22;27271;45.412;10.852;2023-02-21T11:10:45;13.30;6.90
41547;DHT22;27271;45.412;10.852;2023-02-21T11:14:21;13.40;1.00
41547;DHT22;27271;45.412;10.852;2023-02-21T11:17:44;13.20;1.00
41547;DHT22;27271;45.412;10.852;2023-02-21T11:21:15;13.20;1.00
41547;DHT22;27271;45.412;10.852;2023-02-21T11:24:54;13.20;76.60
41547;DHT22;27271;45.412;10.852;2023-02-21T11:28:20;13.40;6.30
41547;DHT22;27271;45.412;10.852;2023-02-21T11:31:43;12.70;42.80
41547;DHT22;27271;45.412;10.852;2023-02-21T11:38:44;12.70;30.90
41547;DHT22;27271;45.412;10.852;2023-02-21T11:42:31;13.00;27.90
41547;DHT22;27271;45.412;10.852;2023-02-21T11:46:02;13.40;2.70
41547;DHT22;27271;45.412;10.852;2023-02-21T11:53:23;13.00;31.40
41547;DHT22;27271;45.412;10.852;2023-02-21T12:04:55;12.70;47.00
41547;DHT22;27271;45.412;10.852;2023-02-21T12:30:24;13.60;1.00
41547;DHT22;27271;45.412;10.852;2023-02-21T12:38:09;13.80;1.00
41547;DHT22;27271;45.412;10.852;2023-02-21T12:45:48;13.80;1.00
41547;DHT22;27271;45.412;10.852;2023-02-21T12:53:12;14.20;1.00
41547;DHT22;27271;45.412;10.852;2023-02-21T12:57:04;14.10;1.00
41547;DHT22;27271;45.412;10.852;2023-02-21T13:04:37;14.40;1.50
41547;DHT22;27271;45.412;10.852;2023-02-21T13:08:06;14.20;1.00
41547;DHT22;27271;45.412;10.852;2023-02-21T13:15:19;14.30;1.00
41547;DHT22;27271;45.412;10.852;2023-02-21T13:18:58;14.00;1.00
41547;DHT22;27271;45.412;10.852;2023-02-21T13:22:24;14.00;1.00
41547;DHT22;27271;45.412;10.852;2023-02-21T13:29:33;14.30;1.00
41547;DHT22;27271;45.412;10.852;2023-02-21T13:33:00;14.10;1.00
41547;DHT22;27271;45.412;10.852;2023-02-21T13:36:31;14.40;1.00
41547;DHT22;27271;45.412;10.852;2023-02-21T13:40:06;14.50;1.00
41547;DHT22;27271;45.412;10.852;2023-02-21T13:43:45;14.20;1.00
41547;DHT22;27271;45.412;10.852;2023-02-21T13:54:23;14.50;1.00
41547;DHT22;27271;45.412;10.852;2023-02-21T13:57:51;14.30;1.00
41547;DHT22;27271;45.412;10.852;2023-02-21T14:01:40;14.10;1.00
41547;DHT22;27271;45.412;10.852;2023-02-21T14:05:04;14.40;1.00
41547;DHT22;27271;45.412;10.852;2023-02-21T14:11:52;14.30;1.00
41547;DHT22;27271;45.412;10.852;2023-02-21T14:15:16;14.20;1.00
41547;DHT22;27271;45.412;10.852;2023-02-21T14:18:44;14.20;1.00
41547;DHT22;27271;45.412;10.852;2023-02-21T14:22:20;14.40;1.00
41547;DHT22;27271;45.412;10.852;2023-02-21T14:26:00;14.40;1.00
41547;DHT22;27271;45.412;10.852;2023-02-21T14:32:59;14.40;1.00
41547;DHT22;27271;45.412;10.852;2023-02-21T14:36:23;14.20;1.00
41547;DHT22;27271;45.412;10.852;2023-02-21T14:39:50;14.00;1.00
41547;DHT22;27271;45.412;10.852;2023-02-21T14:48:03;13.70;1.00
41547;DHT22;27271;45.412;10.852;2023-02-21T14:55:21;13.60;1.00
41547;DHT22;27271;45.412;10.852;2023-02-21T15:02:57;13.70;1.00
41547;DHT22;27271;45.412;10.852;2023-02-21T15:06:27;13.90;1.00
41547;DHT22;27271;45.412;10.852;2023-02-21T15:13:34;13.50;1.00
41547;DHT22;27271;45.412;10.852;2023-02-21T15:17:00;13.50;1.00
41547;DHT22;27271;45.412;10.852;2023-02-21T15:20:40;13.40;6.50
41547;DHT22;27271;45.412;10.852;2023-02-21T15:24:14;13.30;16.10
41547;DHT22;27271;45.412;10.852;2023-02-21T15:27:53;13.40;16.30
41547;DHT22;27271;45.412;10.852;2023-02-21T15:31:26;13.50;5.00
41547;DHT22;27271;45.412;10.852;2023-02-21T15:34:52;13.50;18.10
41547;DHT22;27271;45.412;10.852;2023-02-21T15:38:41;13.40;3.10
41547;DHT22;27271;45.412;10.852;2023-02-21T15:42:08;13.40;15.60
41547;DHT22;27271;45.412;10.852;2023-02-21T15:45:43;13.40;9.20
41547;DHT22;27271;45.412;10.852;2023-02-21T15:49:36;13.40;12.80
41547;DHT22;27271;45.412;10.852;2023-02-21T15:53:18;13.50;10.40
41547;DHT22;27271;45.412;10.852;2023-02-21T15:56:41;13.40;9.80
41547;DHT22;27271;45.412;10.852;2023-02-21T16:00:26;13.30;8.10
41547;DHT22;27271;45.412;10.852;2023-02-21T16:03:48;13.30;14.00
41547;DHT22;27271;45.412;10.852;2023-02-21T16:07:33;13.20;18.50
41547;DHT22;27271;45.412;10.852;2023-02-21T16:11:07;13.20;26.40
41547;DHT22;27271;45.412;10.852;2023-02-21T16:18:08;12.90;42.50
41547;DHT22;27271;45.412;10.852;2023-02-21T16:21:30;12.80;46.10
41547;DHT22;27271;45.412;10.852;2023-02-21T16:28:29;12.40;76.60
41547;DHT22;27271;45.412;10.852;2023-02-21T16:31:52;12.40;99.90
41547;DHT22;27271;45.412;10.852;2023-02-21T16:35:21;12.20;99.90
41547;DHT22;27271;45.412;10.852;2023-02-21T16:38:44;12.10;99.90
41547;DHT22;27271;45.412;10.852;2023-02-21T16:42:06;12.10;99.90
41547;DHT22;27271;45.412;10.852;2023-02-21T16:45:29;11.90;99.90
41547;DHT22;27271;45.412;10.852;2023-02-21T16:48:53;11.80;99.90
41547;DHT22;27271;45.412;10.852;2023-02-21T16:52:15;11.70;99.90
41547;DHT22;27271;45.412;10.852;2023-02-21T16:55:38;11.60;99.90
41547;DHT22;27271;45.412;10.852;2023-02-21T16:59:01;11.60;99.90
41547;DHT22;27271;45.412;10.852;2023-02-21T17:02:23;11.60;99.90
41547;DHT22;27271;45.412;10.852;2023-02-21T17:05:47;11.60;99.90
41547;DHT22;27271;45.412;10.852;2023-02-21T17:09:18;11.50;99.90
41547;DHT22;27271;45.412;10.852;2023-02-21T17:12:41;11.50;99.90
41547;DHT22;27271;45.412;10.852;2023-02-21T17:16:03;11.40;99.90
41547;DHT22;27271;45.412;10.852;2023-02-21T17:19:25;11.40;99.90
41547;DHT22;27271;45.412;10.852;2023-02-21T17:22:47;11.40;99.90
41547;DHT22;27271;45.412;10.852;2023-02-21T17:26:09;11.40;99.90
41547;DHT22;27271;45.412;10.852;2023-02-21T17:29:33;11.30;99.90
41547;DHT22;27271;45.412;10.852;2023-02-21T17:32:55;11.30;99.90
41547;DHT22;27271;45.412;10.852;2023-02-21T17:36:19;11.30;99.90
41547;DHT22;27271;45.412;10.852;2023-02-21T17:39:42;11.30;99.90
41547;DHT22;27271;45.412;10.852;2023-02-21T17:43:04;11.30;99.90
41547;DHT22;27271;45.412;10.852;2023-02-21T17:46:29;11.20;99.90
41547;DHT22;27271;45.412;10.852;2023-02-21T17:49:53;11.20;99.90
41547;DHT22;27271;45.412;10.852;2023-02-21T17:53:23;11.20;99.90
41547;DHT22;27271;45.412;10.852;2023-02-21T17:56:46;11.20;99.90
41547;DHT22;27271;45.412;10.852;2023-02-21T18:00:14;11.20;99.90
41547;DHT22;27271;45.412;10.852;2023-02-21T18:03:37;11.10;99.90
41547;DHT22;27271;45.412;10.852;2023-02-21T18:06:59;11.10;99.90
41547;DHT22;27271;45.412;10.852;2023-02-21T18:10:23;11.10;99.90
41547;DHT22;27271;45.412;10.852;2023-02-21T18:13:46;11.10;99.90
41547;DHT22;27271;45.412;10.852;2023-02-21T18:17:08;11.10;99.90
41547;DHT22;27271;45.412;10.852;2023-02-21T18:20:30;11.00;99.90
41547;DHT22;27271;45.412;10.852;2023-02-21T18:23:53;11.10;99.90
41547;DHT22;27271;45.412;10.852;2023-02-21T18:27:15;11.10;99.90
41547;DHT22;27271;45.412;10.852;2023-02-21T18:30:37;11.10;99.90
41547;DHT22;27271;45.412;10.852;2023-02-21T18:34:00;11.00;99.90
41547;DHT22;27271;45.412;10.852;2023-02-21T18:37:22;11.00;99.90
41547;DHT22;27271;45.412;10.852;2023-02-21T18:40:44;11.00;99.90
41547;DHT22;27271;45.412;10.852;2023-02-21T18:44:07;11.00;99.90
41547;DHT22;27271;45.412;10.852;2023-02-21T18:47:29;11.00;99.90
41547;DHT22;27271;45.412;10.852;2023-02-21T18:50:55;10.90;99.90
41547;DHT22;27271;45.412;10.852;2023-02-21T18:54:18;10.90;99.90
41547;DHT22;27271;45.412;10.852;2023-02-21T18:57:40;10.90;99.90
41547;DHT22;27271;45.412;10.852;2023-02-21T19:01:03;10.90;99.90
41547;DHT22;27271;45.412;10.852;2023-02-21T19:04:26;10.80;99.90
41547;DHT22;27271;45.412;10.852;2023-02-21T19:07:48;10.80;1.00
41547;DHT22;27271;45.412;10.852;2023-02-21T19:11:10;10.80;1.00
41547;DHT22;27271;45.412;10.852;2023-02-21T19:14:33;10.80;1.00
41547;DHT22;27271;45.412;10.852;2023-02-21T19:17:57;10.80;1.00
41547;DHT22;27271;45.412;10.852;2023-02-21T19:21:19;10.80;1.00
41547;DHT22;27271;45.412;10.852;2023-02-21T19:24:41;10.70;1.00
41547;DHT22;27271;45.412;10.852;2023-02-21T19:28:03;10.70;1.00
41547;DHT22;27271;45.412;10.852;2023-02-21T19:31:27;10.60;1.00
41547;DHT22;27271;45.412;10.852;2023-02-21T19:34:49;10.60;1.00
41547;DHT22;27271;45.412;10.852;2023-02-21T19:38:12;10.60;1.00
41547;DHT22;27271;45.412;10.852;2023-02-21T19:41:34;10.50;1.00
41547;DHT22;27271;45.412;10.852;2023-02-21T19:45:01;10.50;32.60
41547;DHT22;27271;45.412;10.852;2023-02-21T19:48:23;10.50;62.40
41547;DHT22;27271;45.412;10.852;2023-02-21T19:51:47;10.40;99.90
41547;DHT22;27271;45.412;10.852;2023-02-21T19:55:10;10.40;99.90
41547;DHT22;27271;45.412;10.852;2023-02-21T19:58:32;10.30;99.90
41547;DHT22;27271;45.412;10.852;2023-02-21T20:01:55;10.20;99.90
41547;DHT22;27271;45.412;10.852;2023-02-21T20:05:17;10.20;99.90
41547;DHT22;27271;45.412;10.852;2023-02-21T20:08:39;10.20;99.90
41547;DHT22;27271;45.412;10.852;2023-02-21T20:12:05;10.20;99.90
41547;DHT22;27271;45.412;10.852;2023-02-21T20:15:27;10.10;99.90
41547;DHT22;27271;45.412;10.852;2023-02-21T20:18:49;10.10;1.00
41547;DHT22;27271;45.412;10.852;2023-02-21T20:22:12;10.10;1.00
41547;DHT22;27271;45.412;10.852;2023-02-21T20:25:34;10.10;1.00
41547;DHT22;27271;45.412;10.852;2023-02-21T20:28:56;10.00;1.00
41547;DHT22;27271;45.412;10.852;2023-02-21T20:32:18;10.00;1.00
41547;DHT22;27271;45.412;10.852;2023-02-21T20:35:41;10.00;1.00
41547;DHT22;27271;45.412;10.852;2023-02-21T20:39:06;10.00;1.00
41547;DHT22;27271;45.412;10.852;2023-02-21T20:42:30;9.90;1.00
41547;DHT22;27271;45.412;10.852;2023-02-21T20:45:52;9.90;1.00
41547;DHT22;27271;45.412;10.852;2023-02-21T20:49:15;9.90;1.00
41547;DHT22;27271;45.412;10.852;2023-02-21T20:52:37;9.90;9.30
41547;DHT22;27271;45.412;10.852;2023-02-21T20:56:01;9.90;11.80
41547;DHT22;27271;45.412;10.852;2023-02-21T20:59:29;9.90;19.10
41547;DHT22;27271;45.412;10.852;2023-02-21T21:02:51;9.80;66.20
41547;DHT22;27271;45.412;10.852;2023-02-21T21:06:13;9.80;90.00
41547;DHT22;27271;45.412;10.852;2023-02-21T21:09:36;9.80;76.80
41547;DHT22;27271;45.412;10.852;2023-02-21T21:13:00;9.80;66.80
41547;DHT22;27271;45.412;10.852;2023-02-21T21:16:23;9.80;82.60
41547;DHT22;27271;45.412;10.852;2023-02-21T21:19:46;9.80;97.60
41547;DHT22;27271;45.412;10.852;2023-02-21T21:23:09;9.80;85.60
41547;DHT22;27271;45.412;10.852;2023-02-21T21:26:31;9.80;85.50
41547;DHT22;27271;45.412;10.852;2023-02-21T21:29:53;9.80;76.50
41547;DHT22;27271;45.412;10.852;2023-02-21T21:33:15;9.80;38.60
41547;DHT22;27271;45.412;10.852;2023-02-21T21:36:43;9.80;68.90
41547;DHT22;27271;45.412;10.852;2023-02-21T21:40:06;9.80;47.60
41547;DHT22;27271;45.412;10.852;2023-02-21T21:43:36;9.80;13.70
41547;DHT22;27271;45.412;10.852;2023-02-21T21:46:59;9.80;25.20
41547;DHT22;27271;45.412;10.852;2023-02-21T21:50:24;9.80;23.80
41547;DHT22;27271;45.412;10.852;2023-02-21T21:53:46;9.80;1.00
41547;DHT22;27271;45.412;10.852;2023-02-21T21:57:08;9.80;1.00
41547;DHT22;27271;45.412;10.852;2023-02-21T22:00:31;9.80;1.00
41547;DHT22;27271;45.412;10.852;2023-02-21T22:04:02;9.70;6.10
41547;DHT22;27271;45.412;10.852;2023-02-21T22:07:24;9.70;9.50
41547;DHT22;27271;45.412;10.852;2023-02-21T22:10:46;9.70;1.00
41547;DHT22;27271;45.412;10.852;2023-02-21T22:14:09;9.70;1.00
41547;DHT22;27271;45.412;10.852;2023-02-21T22:17:31;9.70;1.00
41547;DHT22;27271;45.412;10.852;2023-02-21T22:20:53;9.60;1.00
41547;DHT22;27271;45.412;10.852;2023-02-21T22:24:15;9.60;1.00
41547;DHT22;27271;45.412;10.852;2023-02-21T22:27:41;9.60;30.40
41547;DHT22;27271;45.412;10.852;2023-02-21T22:31:06;9.60;49.50
41547;DHT22;27271;45.412;10.852;2023-02-21T22:34:29;9.60;99.80
41547;DHT22;27271;45.412;10.852;2023-02-21T22:37:53;9.50;98.60
41547;DHT22;27271;45.412;10.852;2023-02-21T22:41:18;9.50;94.70
41547;DHT22;27271;45.412;10.852;2023-02-21T22:44:40;9.50;99.90
41547;DHT22;27271;45.412;10.852;2023-02-21T22:48:05;9.50;99.90
41547;DHT22;27271;45.412;10.852;2023-02-21T22:51:30;9.50;99.90
41547;DHT22;27271;45.412;10.852;2023-02-21T22:54:52;9.50;99.90
41547;DHT22;27271;45.412;10.852;2023-02-21T22:58:16;9.50;99.90
41547;DHT22;27271;45.412;10.852;2023-02-21T23:01:41;9.50;99.90
41547;DHT22;27271;45.412;10.852;2023-02-21T23:05:04;9.50;99.90
41547;DHT22;27271;45.412;10.852;2023-02-21T23:08:26;9.50;99.90
41547;DHT22;27271;45.412;10.852;2023-02-21T23:11:52;9.50;99.90
41547;DHT22;27271;45.412;10.852;2023-02-21T23:15:15;9.40;99.90
41547;DHT22;27271;45.412;10.852;2023-02-21T23:18:37;9.40;99.90
41547;DHT22;27271;45.412;10.852;2023-02-21T23:22:00;9.40;99.90
41547;DHT22;27271;45.412;10.852;2023-02-21T23:25:32;9.40;99.90
41547;DHT22;27271;45.412;10.852;2023-02-21T23:28:56;9.40;99.90
41547;DHT22;27271;45.412;10.852;2023-02-21T23:32:18;9.50;99.90
41547;DHT22;27271;45.412;10.852;2023-02-21T23:35:41;9.50;99.90
41547;DHT22;27271;45.412;10.852;2023-02-21T23:39:07;9.50;99.90
41547;DHT22;27271;45.412;10.852;2023-02-21T23:42:30;9.50;99.90
41547;DHT22;27271;45.412;10.852;2023-02-21T23:45:52;9.50;99.90
41547;DHT22;27271;45.412;10.852;2023-02-21T23:49:14;9.50;99.90
41547;DHT22;27271;45.412;10.852;2023-02-21T23:52:37;9.50;99.90
41547;DHT22;27271;45.412;10.852;2023-02-21T23:55:59;9.50;99.90
41547;DHT22;27271;45.412;10.852;2023-02-21T23:59:21;9.50;99.90
